Time;durP1;ratioP1;P1;durP2;ratioP2;P2;SDS_P1;SDS_P2;PMS_P1;PMS_P2;Temp;Humidity;BMP_temperature;BMP_pressure;BME280_temperature;BME280_humidity;BME280_pressure;Samples;Min_cycle;Max_cycle;Signal;HPM_P1;HPM_P2
2022/12/18 00:01:30;;;;;;;;;;;;;;;;;;5051685;28;19921;-58
2022/12/18 00:03:56;;;;;;;;;;;;;;;;;;5044603;28;19952;-55
2022/12/18 00:06:22;;;;;;;;;;;;;;;;;;5044516;28;19909;-56
2022/12/18 00:08:48;;;;;;;;;;;;;;;;;;5050219;28;19920;-56
2022/12/18 00:11:14;;;;;;;;;;;;;;;;;;5050290;28;19912;-57
2022/12/18 00:13:40;;;;;;;;;;;;;;;;;;5051233;28;20289;-55
2022/12/18 00:16:06;;;;;;;;;;;;;;;;;;5051010;28;19905;-57
2022/12/18 00:18:32;;;;;;;;;;;;;;;;;;5051391;28;19917;-57
2022/12/18 00:20:58;;;;;;;;;;;;;;;;;;5051433;28;19909;-59
2022/12/18 00:23:24;;;;;;;;;;;;;;;;;;5051368;28;19960;-58
2022/12/18 00:25:50;;;;;;;;;;;;;;;;;;5051765;28;19999;-56
2022/12/18 00:28:16;;;;;;;;;;;;;;;;;;5052006;28;19927;-58
2022/12/18 00:30:41;;;;;;;;;;;;;;;;;;5051880;28;19916;-56
2022/12/18 00:33:07;;;;;;;;;;;;;;;;;;5051805;28;19916;-58
2022/12/18 00:35:33;;;;;;;;;;;;;;;;;;5050648;28;20289;-57
2022/12/18 00:37:59;;;;;;;;;;;;;;;;;;5050503;28;19912;-58
2022/12/18 00:40:25;;;;;;;;;;;;;;;;;;5051383;28;19913;-58
2022/12/18 00:42:57;;;;;;;;;;;;;;;;;;5051787;28;20362;-58
2022/12/18 00:45:23;;;;;;;;;;;;;;;;;;5052117;28;19916;-55
2022/12/18 00:47:49;;;;;;;;;;;;;;;;;;5056032;28;19913;-57
2022/12/18 00:50:15;;;;;;;;;;;;;;;;;;5055697;28;19913;-55
2022/12/18 00:52:41;;;;;;;;;;;;;;;;;;5056857;28;19967;-55
2022/12/18 00:55:07;;;;;;;;;;;;;;;;;;5073810;28;20400;-55
2022/12/18 00:57:33;;;;;;;;;;;;;;;;;;5074373;28;20399;-58
2022/12/18 00:59:59;;;;;;;;;;;;;;;;;;5063295;28;19948;-54
2022/12/18 01:02:24;;;;;;;;;;;;;;;;;;5056686;28;19916;-57
2022/12/18 01:04:50;;;;;;;;;;;;;;;;;;5059737;28;19912;-57
2022/12/18 01:07:16;;;;;;;;;;;;;;;;;;5064576;28;20373;-58
2022/12/18 01:09:42;;;;;;;;;;;;;;;;;;5055518;28;19913;-56
2022/12/18 01:12:08;;;;;;;;;;;;;;;;;;5055362;28;19909;-58
2022/12/18 01:14:34;;;;;;;;;;;;;;;;;;5054308;28;19909;-57
2022/12/18 01:17:02;;;;;;;;;;;;;;;;;;5059210;28;20374;-58
2022/12/18 01:19:28;;;;;;;;;;;;;;;;;;5058927;28;19916;-59
2022/12/18 01:21:54;;;;;;;;;;;;;;;;;;5055068;28;19909;-56
2022/12/18 01:24:20;;;;;;;;;;;;;;;;;;5057801;28;20282;-56
2022/12/18 01:26:46;;;;;;;;;;;;;;;;;;5058936;28;19913;-57
2022/12/18 01:29:11;;;;;;;;;;;;;;;;;;5054981;28;19913;-58
2022/12/18 01:31:37;;;;;;;;;;;;;;;;;;5055092;28;19909;-57
2022/12/18 01:34:03;;;;;;;;;;;;;;;;;;5053754;28;19909;-57
2022/12/18 01:36:29;;;;;;;;;;;;;;;;;;5054926;28;19912;-57
2022/12/18 01:38:55;;;;;;;;;;;;;;;;;;5066807;28;19924;-56
2022/12/18 01:41:21;;;;;;;;;;;;;;;;;;5057714;28;20396;-56
2022/12/18 01:43:47;;;;;;;;;;;;;;;;;;5059587;28;19966;-55
2022/12/18 01:46:13;;;;;;;;;;;;;;;;;;5066319;28;19924;-57
2022/12/18 01:48:39;;;;;;;;;;;;;;;;;;5058519;28;19912;-57
2022/12/18 01:51:05;;;;;;;;;;;;;;;;;;5066901;28;19913;-57
2022/12/18 01:53:31;;;;;;;;;;;;;;;;;;5069700;28;20380;-57
2022/12/18 01:55:56;;;;;;;;;;;;;;;;;;5060790;28;20297;-58
2022/12/18 01:58:22;;;;;;;;;;;;;;;;;;5058922;28;19960;-55
2022/12/18 02:00:48;;;;;;;;;;;;;;;;;;5055446;28;19996;-58
2022/12/18 02:03:14;;;;;;;;;;;;;;;;;;5058838;28;19920;-57
2022/12/18 02:05:41;;;;;;;;;;;;;;;;;;5070889;28;19912;-54
2022/12/18 02:08:07;;;;;;;;;;;;;;;;;;5055947;28;19909;-56
2022/12/18 02:10:32;;;;;;;;;;;;;;;;;;5068805;28;19913;-57
2022/12/18 02:12:58;;;;;;;;;;;;;;;;;;5090853;22;19932;-50
2022/12/18 02:15:24;;;;;;;;;;;;;;;;;;5041141;28;19913;-50
2022/12/18 02:17:50;;;;;;;;;;;;;;;;;;5045176;28;19909;-50
2022/12/18 02:20:16;;;;;;;;;;;;;;;;;;5037478;28;20374;-50
2022/12/18 02:22:42;;;;;;;;;;;;;;;;;;5035415;28;19909;-50
2022/12/18 02:25:08;;;;;;;;;;;;;;;;;;5051488;28;19913;-50
2022/12/18 02:27:34;;;;;;;;;;;;;;;;;;5053652;28;19908;-50
2022/12/18 02:30:00;;;;;;;;;;;;;;;;;;5053490;28;20445;-50
2022/12/18 02:32:26;;;;;;;;;;;;;;;;;;5052834;28;19919;-50
2022/12/18 02:34:51;;;;;;;;;;;;;;;;;;5053443;28;19913;-50
2022/12/18 02:37:17;;;;;;;;;;;;;;;;;;5053653;28;20265;-50
2022/12/18 02:39:43;;;;;;;;;;;;;;;;;;5053524;28;19913;-52
2022/12/18 02:42:09;;;;;;;;;;;;;;;;;;5053763;28;19959;-50
2022/12/18 02:44:35;;;;;;;;;;;;;;;;;;5053816;28;20213;-50
2022/12/18 02:47:01;;;;;;;;;;;;;;;;;;5053278;28;20292;-50
2022/12/18 02:49:27;;;;;;;;;;;;;;;;;;5053404;28;19913;-50
2022/12/18 02:51:53;;;;;;;;;;;;;;;;;;5053533;28;19909;-50
2022/12/18 02:54:19;;;;;;;;;;;;;;;;;;5053657;28;19996;-50
2022/12/18 02:56:45;;;;;;;;;;;;;;;;;;5053359;28;19999;-50
2022/12/18 02:59:11;;;;;;;;;;;;;;;;;;5053225;28;20008;-50
2022/12/18 03:01:37;;;;;;;;;;;;;;;;;;5053148;28;19909;-50
2022/12/18 03:04:03;;;;;;;;;;;;;;;;;;5051551;28;19912;-50
2022/12/18 03:06:29;;;;;;;;;;;;;;;;;;5053740;28;20333;-50
2022/12/18 03:08:55;;;;;;;;;;;;;;;;;;5052108;28;19959;-50
2022/12/18 03:12:22;;;;;;;;;;;;;;;;;;5052967;28;19952;-50
2022/12/18 03:14:06;;;;;;;;;;;;;;;;;;5052738;28;19974;-50
2022/12/18 03:16:32;;;;;;;;;;;;;;;;;;5052336;28;19917;-52
2022/12/18 03:18:58;;;;;;;;;;;;;;;;;;5052471;28;20364;-50
2022/12/18 03:21:24;;;;;;;;;;;;;;;;;;5053041;28;19909;-50
2022/12/18 03:23:50;;;;;;;;;;;;;;;;;;5052608;28;19913;-50
2022/12/18 03:26:16;;;;;;;;;;;;;;;;;;5052321;28;20343;-51
2022/12/18 03:28:42;;;;;;;;;;;;;;;;;;5051509;28;19912;-52
2022/12/18 03:31:08;;;;;;;;;;;;;;;;;;5051903;28;20428;-50
2022/12/18 03:33:33;;;;;;;;;;;;;;;;;;5052476;28;19913;-51
2022/12/18 03:35:59;;;;;;;;;;;;;;;;;;5052110;28;19913;-50
2022/12/18 03:38:25;;;;;;;;;;;;;;;;;;5052144;28;20430;-50
2022/12/18 03:40:51;;;;;;;;;;;;;;;;;;5053061;28;19909;-50
2022/12/18 03:43:17;;;;;;;;;;;;;;;;;;5052023;28;19912;-50
2022/12/18 03:45:43;;;;;;;;;;;;;;;;;;5052283;28;19913;-53
2022/12/18 03:48:09;;;;;;;;;;;;;;;;;;5050612;28;19912;-50
2022/12/18 03:50:35;;;;;;;;;;;;;;;;;;5052108;28;19913;-50
2022/12/18 03:53:01;;;;;;;;;;;;;;;;;;5051881;28;20262;-51
2022/12/18 03:55:27;;;;;;;;;;;;;;;;;;5051747;28;20332;-50
2022/12/18 03:57:52;;;;;;;;;;;;;;;;;;5051694;28;19954;-50
2022/12/18 04:00:18;;;;;;;;;;;;;;;;;;5051696;28;19913;-50
2022/12/18 04:02:44;;;;;;;;;;;;;;;;;;5051933;28;19913;-50
2022/12/18 04:05:10;;;;;;;;;;;;;;;;;;5050724;28;20004;-50
2022/12/18 04:07:36;;;;;;;;;;;;;;;;;;5051795;28;20337;-50
2022/12/18 04:10:02;;;;;;;;;;;;;;;;;;5051749;28;20019;-50
2022/12/18 04:12:28;;;;;;;;;;;;;;;;;;5051814;28;20011;-50
2022/12/18 04:14:54;;;;;;;;;;;;;;;;;;5051802;28;19947;-50
2022/12/18 04:17:20;;;;;;;;;;;;;;;;;;5052131;28;20048;-50
2022/12/18 04:19:46;;;;;;;;;;;;;;;;;;5051579;28;20419;-50
2022/12/18 04:22:12;;;;;;;;;;;;;;;;;;5051516;28;20335;-50
2022/12/18 04:24:37;;;;;;;;;;;;;;;;;;5051743;28;19917;-52
2022/12/18 04:27:03;;;;;;;;;;;;;;;;;;5050303;28;19947;-52
2022/12/18 04:29:29;;;;;;;;;;;;;;;;;;5051382;28;19974;-50
2022/12/18 04:31:55;;;;;;;;;;;;;;;;;;5050723;28;19967;-50
2022/12/18 04:34:21;;;;;;;;;;;;;;;;;;5051334;28;20347;-50
2022/12/18 04:36:47;;;;;;;;;;;;;;;;;;5051087;28;19913;-50
2022/12/18 04:39:13;;;;;;;;;;;;;;;;;;5051403;28;19916;-50
2022/12/18 04:41:39;;;;;;;;;;;;;;;;;;5050394;28;19913;-50
2022/12/18 04:44:05;;;;;;;;;;;;;;;;;;5050616;28;20280;-50
2022/12/18 04:46:31;;;;;;;;;;;;;;;;;;5050139;28;19913;-50
2022/12/18 04:48:57;;;;;;;;;;;;;;;;;;5051361;28;19927;-50
2022/12/18 04:51:23;;;;;;;;;;;;;;;;;;5052030;28;19915;-50
2022/12/18 04:53:49;;;;;;;;;;;;;;;;;;5049377;28;19919;-50
2022/12/18 04:56:14;;;;;;;;;;;;;;;;;;5051388;28;19913;-50
2022/12/18 04:58:40;;;;;;;;;;;;;;;;;;5050762;28;19916;-50
2022/12/18 05:01:07;;;;;;;;;;;;;;;;;;5050964;28;20038;-50
2022/12/18 05:03:33;;;;;;;;;;;;;;;;;;5051580;28;19912;-50
2022/12/18 05:05:59;;;;;;;;;;;;;;;;;;5049997;28;20015;-50
2022/12/18 05:08:25;;;;;;;;;;;;;;;;;;5051214;28;20046;-49
2022/12/18 05:10:51;;;;;;;;;;;;;;;;;;5051310;28;19920;-51
2022/12/18 05:13:16;;;;;;;;;;;;;;;;;;5050919;28;19924;-52
2022/12/18 05:15:42;;;;;;;;;;;;;;;;;;5051092;28;19916;-51
2022/12/18 05:18:08;;;;;;;;;;;;;;;;;;5051102;28;19920;-49
2022/12/18 05:20:34;;;;;;;;;;;;;;;;;;5051709;28;19913;-50
2022/12/18 05:23:00;;;;;;;;;;;;;;;;;;5051186;28;20382;-53
2022/12/18 05:25:26;;;;;;;;;;;;;;;;;;5051023;28;19917;-53
2022/12/18 05:27:52;;;;;;;;;;;;;;;;;;5051185;28;19913;-50
2022/12/18 05:30:18;;;;;;;;;;;;;;;;;;5050897;28;20401;-51
2022/12/18 05:32:44;;;;;;;;;;;;;;;;;;5053308;28;19921;-53
2022/12/18 05:35:10;;;;;;;;;;;;;;;;;;5054920;28;20339;-52
2022/12/18 05:37:36;;;;;;;;;;;;;;;;;;5054702;28;20296;-50
2022/12/18 05:40:02;;;;;;;;;;;;;;;;;;5054923;28;19920;-50
2022/12/18 05:42:27;;;;;;;;;;;;;;;;;;5054515;28;19917;-51
2022/12/18 05:44:53;;;;;;;;;;;;;;;;;;5054665;28;19912;-50
2022/12/18 05:47:19;;;;;;;;;;;;;;;;;;5054512;28;19920;-50
2022/12/18 05:49:45;;;;;;;;;;;;;;;;;;5054650;28;19920;-50
2022/12/18 05:52:11;;;;;;;;;;;;;;;;;;5054626;28;19957;-53
2022/12/18 05:54:37;;;;;;;;;;;;;;;;;;5054247;28;19920;-52
2022/12/18 05:57:03;;;;;;;;;;;;;;;;;;5054158;28;20304;-52
2022/12/18 05:59:29;;;;;;;;;;;;;;;;;;5054480;28;20015;-50
2022/12/18 06:01:55;;;;;;;;;;;;;;;;;;5054181;28;19913;-50
2022/12/18 06:04:21;;;;;;;;;;;;;;;;;;5054294;28;19912;-51
2022/12/18 06:06:46;;;;;;;;;;;;;;;;;;5053897;28;19913;-51
2022/12/18 06:09:12;;;;;;;;;;;;;;;;;;5054065;28;19913;-51
2022/12/18 06:11:38;;;;;;;;;;;;;;;;;;5054429;28;19913;-51
2022/12/18 06:14:04;;;;;;;;;;;;;;;;;;5054112;28;20277;-50
2022/12/18 06:16:30;;;;;;;;;;;;;;;;;;5054160;28;19912;-50
2022/12/18 06:18:56;;;;;;;;;;;;;;;;;;5053269;28;19920;-50
2022/12/18 06:21:22;;;;;;;;;;;;;;;;;;5053889;28;19913;-51
2022/12/18 06:23:48;;;;;;;;;;;;;;;;;;5053874;28;19975;-52
2022/12/18 06:26:14;;;;;;;;;;;;;;;;;;5053763;28;20023;-53
2022/12/18 06:28:40;;;;;;;;;;;;;;;;;;5052377;28;19917;-53
2022/12/18 06:31:06;;;;;;;;;;;;;;;;;;5042951;28;19963;-52
2022/12/18 06:33:32;;;;;;;;;;;;;;;;;;5053970;28;19970;-55
2022/12/18 06:35:58;;;;;;;;;;;;;;;;;;5053820;28;20411;-50
2022/12/18 06:38:23;;;;;;;;;;;;;;;;;;5053586;28;19917;-53
2022/12/18 06:40:49;;;;;;;;;;;;;;;;;;5053242;28;20004;-50
2022/12/18 06:43:15;;;;;;;;;;;;;;;;;;5053854;28;19913;-49
2022/12/18 06:45:42;;;;;;;;;;;;;;;;;;5053435;28;20337;-52
2022/12/18 06:48:07;;;;;;;;;;;;;;;;;;5053616;28;19952;-52
2022/12/18 06:50:33;;;;;;;;;;;;;;;;;;5053214;28;19940;-52
2022/12/18 06:52:59;;;;;;;;;;;;;;;;;;5051438;28;20011;-49
2022/12/18 06:55:25;;;;;;;;;;;;;;;;;;5053031;28;20365;-50
2022/12/18 06:57:51;;;;;;;;;;;;;;;;;;5053577;28;20003;-50
2022/12/18 07:00:17;;;;;;;;;;;;;;;;;;5053395;28;19919;-52
2022/12/18 07:02:43;;;;;;;;;;;;;;;;;;5053191;28;19920;-49
2022/12/18 07:05:09;;;;;;;;;;;;;;;;;;5053349;28;20031;-51
2022/12/18 07:07:35;;;;;;;;;;;;;;;;;;5053401;28;20404;-51
2022/12/18 07:10:01;;;;;;;;;;;;;;;;;;5053324;28;19913;-49
2022/12/18 07:12:27;;;;;;;;;;;;;;;;;;5052853;28;19913;-51
2022/12/18 07:14:53;;;;;;;;;;;;;;;;;;5053510;28;19913;-49
2022/12/18 07:17:19;;;;;;;;;;;;;;;;;;5053379;28;19912;-52
2022/12/18 07:19:44;;;;;;;;;;;;;;;;;;5053068;28;20408;-51
2022/12/18 07:22:10;;;;;;;;;;;;;;;;;;5053182;28;19916;-49
2022/12/18 07:24:36;;;;;;;;;;;;;;;;;;5052244;28;19924;-51
2022/12/18 07:27:02;;;;;;;;;;;;;;;;;;5052537;28;19917;-51
2022/12/18 07:29:28;;;;;;;;;;;;;;;;;;5052154;28;19917;-51
2022/12/18 07:31:54;;;;;;;;;;;;;;;;;;5052562;28;19912;-49
2022/12/18 07:34:20;;;;;;;;;;;;;;;;;;5051270;28;19913;-49
2022/12/18 07:36:46;;;;;;;;;;;;;;;;;;5052332;28;19920;-51
2022/12/18 07:39:12;;;;;;;;;;;;;;;;;;5052112;28;20016;-50
2022/12/18 07:41:45;;;;;;;;;;;;;;;;;;5052038;28;20209;-51
2022/12/18 07:44:11;;;;;;;;;;;;;;;;;;5052085;28;19920;-51
2022/12/18 07:46:37;;;;;;;;;;;;;;;;;;5052758;28;19913;-51
2022/12/18 07:49:03;;;;;;;;;;;;;;;;;;5052358;28;20343;-49
2022/12/18 07:51:29;;;;;;;;;;;;;;;;;;5052493;28;19909;-54
2022/12/18 07:53:55;;;;;;;;;;;;;;;;;;5051236;28;19919;-50
2022/12/18 07:56:21;;;;;;;;;;;;;;;;;;5052134;28;19938;-49
2022/12/18 07:58:47;;;;;;;;;;;;;;;;;;5052111;28;20380;-49
2022/12/18 08:01:13;;;;;;;;;;;;;;;;;;5051022;28;20337;-50
2022/12/18 08:03:39;;;;;;;;;;;;;;;;;;5050672;28;20296;-49
2022/12/18 08:06:05;;;;;;;;;;;;;;;;;;5051436;28;19920;-52
2022/12/18 08:08:30;;;;;;;;;;;;;;;;;;5051843;28;19913;-50
2022/12/18 08:10:56;;;;;;;;;;;;;;;;;;5050943;28;19920;-49
2022/12/18 08:13:22;;;;;;;;;;;;;;;;;;5051944;28;19923;-49
2022/12/18 08:15:48;;;;;;;;;;;;;;;;;;5050234;28;19917;-49
2022/12/18 08:18:14;;;;;;;;;;;;;;;;;;5051188;28;19913;-49
2022/12/18 08:20:40;;;;;;;;;;;;;;;;;;5050469;28;19920;-52
2022/12/18 08:23:06;;;;;;;;;;;;;;;;;;5051014;28;20290;-53
2022/12/18 08:25:32;;;;;;;;;;;;;;;;;;5051291;28;19999;-52
2022/12/18 08:27:58;;;;;;;;;;;;;;;;;;5052032;28;19912;-50
2022/12/18 08:30:24;;;;;;;;;;;;;;;;;;5051966;28;19908;-49
2022/12/18 08:32:49;;;;;;;;;;;;;;;;;;5051873;28;19915;-49
2022/12/18 08:35:15;;;;;;;;;;;;;;;;;;5051962;28;20454;-50
2022/12/18 08:37:41;;;;;;;;;;;;;;;;;;5052034;28;19910;-49
2022/12/18 08:40:07;;;;;;;;;;;;;;;;;;5051875;28;19912;-51
2022/12/18 08:45:18;;;;;;;;;;;;;;;;;;5052012;28;20419;-49
2022/12/18 08:47:44;;;;;;;;;;;;;;;;;;5051921;28;19908;-50
2022/12/18 08:50:11;;;;;;;;;;;;;;;;;;5050493;28;20320;-50
2022/12/18 08:52:37;;;;;;;;;;;;;;;;;;5051671;28;19913;-49
2022/12/18 08:55:03;;;;;;;;;;;;;;;;;;5051252;28;19936;-50
2022/12/18 08:57:29;;;;;;;;;;;;;;;;;;5050630;28;20404;-53
2022/12/18 08:59:55;;;;;;;;;;;;;;;;;;5048653;28;20304;-49
2022/12/18 09:02:21;;;;;;;;;;;;;;;;;;5049722;28;19920;-50
2022/12/18 09:04:47;;;;;;;;;;;;;;;;;;5051357;28;19913;-49
2022/12/18 09:07:13;;;;;;;;;;;;;;;;;;5053047;28;20381;-52
2022/12/18 09:09:39;;;;;;;;;;;;;;;;;;5053624;28;19954;-51
2022/12/18 09:12:05;;;;;;;;;;;;;;;;;;5054349;28;19966;-50
2022/12/18 09:14:31;;;;;;;;;;;;;;;;;;5054179;28;19986;-51
2022/12/18 09:16:56;;;;;;;;;;;;;;;;;;5054832;28;19916;-50
2022/12/18 09:19:22;;;;;;;;;;;;;;;;;;5055098;28;20216;-49
2022/12/18 09:21:48;;;;;;;;;;;;;;;;;;5051189;28;19913;-50
2022/12/18 09:24:14;;;;;;;;;;;;;;;;;;5055323;28;20285;-49
2022/12/18 09:26:40;;;;;;;;;;;;;;;;;;5054692;28;19913;-49
2022/12/18 09:29:07;;;;;;;;;;;;;;;;;;5054753;28;19920;-50
2022/12/18 09:31:33;;;;;;;;;;;;;;;;;;5054749;28;20321;-50
2022/12/18 09:33:58;;;;;;;;;;;;;;;;;;5053919;28;19909;-50
2022/12/18 09:36:24;;;;;;;;;;;;;;;;;;5055093;28;19919;-51
2022/12/18 09:38:50;;;;;;;;;;;;;;;;;;5054979;28;19920;-49
2022/12/18 09:41:16;;;;;;;;;;;;;;;;;;5054931;28;20347;-50
2022/12/18 09:43:42;;;;;;;;;;;;;;;;;;5054735;28;19959;-51
2022/12/18 09:46:08;;;;;;;;;;;;;;;;;;5053474;28;19958;-50
2022/12/18 09:48:34;;;;;;;;;;;;;;;;;;5054581;28;19909;-50
2022/12/18 09:51:00;;;;;;;;;;;;;;;;;;5054612;28;19913;-50
2022/12/18 09:53:26;;;;;;;;;;;;;;;;;;5053702;28;20313;-49
2022/12/18 09:55:53;;;;;;;;;;;;;;;;;;5054344;28;19913;-49
2022/12/18 09:58:19;;;;;;;;;;;;;;;;;;5054530;28;19909;-49
2022/12/18 10:00:44;;;;;;;;;;;;;;;;;;5053295;28;20301;-49
2022/12/18 10:03:10;;;;;;;;;;;;;;;;;;5054705;28;19915;-50
2022/12/18 10:05:36;;;;;;;;;;;;;;;;;;5054707;28;19966;-50
2022/12/18 10:08:02;;;;;;;;;;;;;;;;;;5054581;28;19909;-49
2022/12/18 10:10:28;;;;;;;;;;;;;;;;;;5054481;28;19995;-49
2022/12/18 10:12:54;;;;;;;;;;;;;;;;;;5053032;28;20333;-50
2022/12/18 10:15:20;;;;;;;;;;;;;;;;;;5054436;28;19917;-50
2022/12/18 10:17:46;;;;;;;;;;;;;;;;;;5054003;28;20015;-52
2022/12/18 10:20:13;;;;;;;;;;;;;;;;;;5054202;28;19967;-50
2022/12/18 10:22:38;;;;;;;;;;;;;;;;;;5054333;28;19913;-50
2022/12/18 10:25:04;;;;;;;;;;;;;;;;;;5054343;28;19918;-50
2022/12/18 10:27:30;;;;;;;;;;;;;;;;;;5054163;28;20369;-49
2022/12/18 10:29:56;;;;;;;;;;;;;;;;;;5053967;28;20300;-50
2022/12/18 10:32:22;;;;;;;;;;;;;;;;;;5054040;28;19915;-50
2022/12/18 10:34:48;;;;;;;;;;;;;;;;;;5054122;28;19948;-51
2022/12/18 10:37:14;;;;;;;;;;;;;;;;;;5054111;28;20026;-50
2022/12/18 10:39:40;;;;;;;;;;;;;;;;;;5053888;28;19995;-49
2022/12/18 10:42:06;;;;;;;;;;;;;;;;;;5053865;28;20354;-50
2022/12/18 10:44:32;;;;;;;;;;;;;;;;;;5052436;28;20012;-49
2022/12/18 10:46:57;;;;;;;;;;;;;;;;;;5053875;28;20054;-50
2022/12/18 10:49:24;;;;;;;;;;;;;;;;;;5053671;28;19954;-49
2022/12/18 10:51:49;;;;;;;;;;;;;;;;;;5053729;28;20333;-49
2022/12/18 10:54:16;;;;;;;;;;;;;;;;;;5054034;28;19962;-49
2022/12/18 10:56:42;;;;;;;;;;;;;;;;;;5053513;28;20003;-49
2022/12/18 10:59:07;;;;;;;;;;;;;;;;;;5053308;28;20055;-50
2022/12/18 11:01:33;;;;;;;;;;;;;;;;;;5053596;28;19909;-49
2022/12/18 11:03:59;;;;;;;;;;;;;;;;;;5053515;28;19916;-50
2022/12/18 11:06:25;;;;;;;;;;;;;;;;;;5053480;28;19982;-50
2022/12/18 11:08:51;;;;;;;;;;;;;;;;;;5053306;28;19908;-49
2022/12/18 11:11:17;;;;;;;;;;;;;;;;;;5053282;28;19913;-50
2022/12/18 11:13:43;;;;;;;;;;;;;;;;;;5053143;28;19924;-50
2022/12/18 11:16:09;;;;;;;;;;;;;;;;;;5053285;28;20327;-53
2022/12/18 11:18:35;;;;;;;;;;;;;;;;;;5053085;28;19913;-52
2022/12/18 11:21:01;;;;;;;;;;;;;;;;;;5051972;28;19974;-50
2022/12/18 11:23:26;;;;;;;;;;;;;;;;;;5053073;28;19959;-50
2022/12/18 11:25:53;;;;;;;;;;;;;;;;;;5051725;28;19958;-50
2022/12/18 11:28:18;;;;;;;;;;;;;;;;;;5053059;28;19948;-49
2022/12/18 11:30:44;;;;;;;;;;;;;;;;;;5052481;28;19943;-50
2022/12/18 11:33:10;;;;;;;;;;;;;;;;;;5051683;28;20371;-50
2022/12/18 11:35:36;;;;;;;;;;;;;;;;;;5053029;28;20016;-49
2022/12/18 11:38:02;;;;;;;;;;;;;;;;;;5052908;28;19952;-50
2022/12/18 11:40:28;;;;;;;;;;;;;;;;;;5052532;28;19912;-50
2022/12/18 11:42:54;;;;;;;;;;;;;;;;;;5052746;28;20425;-50
2022/12/18 11:45:20;;;;;;;;;;;;;;;;;;5052735;28;19940;-50
2022/12/18 11:47:47;;;;;;;;;;;;;;;;;;5052682;28;19920;-52
2022/12/18 11:50:12;;;;;;;;;;;;;;;;;;5052870;28;20311;-50
2022/12/18 11:52:38;;;;;;;;;;;;;;;;;;5052505;28;19995;-50
2022/12/18 11:55:04;;;;;;;;;;;;;;;;;;5052639;28;20003;-50
2022/12/18 11:57:30;;;;;;;;;;;;;;;;;;5052878;28;19917;-51
2022/12/18 11:59:56;;;;;;;;;;;;;;;;;;5051028;28;19917;-50
2022/12/18 12:02:22;;;;;;;;;;;;;;;;;;5051896;28;19913;-52
2022/12/18 12:04:48;;;;;;;;;;;;;;;;;;5051472;28;19917;-51
2022/12/18 12:07:14;;;;;;;;;;;;;;;;;;5051769;28;20377;-52
2022/12/18 12:09:40;;;;;;;;;;;;;;;;;;5051823;28;19971;-50
2022/12/18 12:12:06;;;;;;;;;;;;;;;;;;5052247;28;19913;-49
2022/12/18 12:14:32;;;;;;;;;;;;;;;;;;5051760;28;19917;-50
2022/12/18 12:16:58;;;;;;;;;;;;;;;;;;5052149;28;19974;-50
2022/12/18 12:19:23;;;;;;;;;;;;;;;;;;5051464;28;19924;-49
2022/12/18 12:21:49;;;;;;;;;;;;;;;;;;5051327;28;19913;-53
2022/12/18 12:24:15;;;;;;;;;;;;;;;;;;5052143;28;19954;-51
2022/12/18 12:26:41;;;;;;;;;;;;;;;;;;5051115;28;19917;-50
2022/12/18 12:29:07;;;;;;;;;;;;;;;;;;5051859;28;19920;-49
2022/12/18 12:31:33;;;;;;;;;;;;;;;;;;5050874;28;19963;-50
2022/12/18 12:33:59;;;;;;;;;;;;;;;;;;5051268;28;19909;-52
2022/12/18 12:36:25;;;;;;;;;;;;;;;;;;5050123;28;19913;-49
2022/12/18 12:38:51;;;;;;;;;;;;;;;;;;5051473;28;20453;-49
2022/12/18 12:44:02;;;;;;;;;;;;;;;;;;5058455;28;20000;-49
2022/12/18 12:46:28;;;;;;;;;;;;;;;;;;5058091;28;19955;-49
2022/12/18 12:48:53;;;;;;;;;;;;;;;;;;5057775;28;20385;-50
2022/12/18 12:51:19;;;;;;;;;;;;;;;;;;5057723;28;19916;-50
2022/12/18 12:53:45;;;;;;;;;;;;;;;;;;5058271;28;19920;-49
2022/12/18 12:56:11;;;;;;;;;;;;;;;;;;5056666;28;19920;-50
2022/12/18 12:58:37;;;;;;;;;;;;;;;;;;5058276;28;19913;-50
2022/12/18 13:01:03;;;;;;;;;;;;;;;;;;5056957;28;20373;-51
2022/12/18 13:03:29;;;;;;;;;;;;;;;;;;5058426;28;19935;-52
2022/12/18 13:05:56;;;;;;;;;;;;;;;;;;5058094;28;19913;-51
2022/12/18 13:08:22;;;;;;;;;;;;;;;;;;5058176;28;19913;-50
2022/12/18 13:10:48;;;;;;;;;;;;;;;;;;5057248;28;19913;-50
2022/12/18 13:13:15;;;;;;;;;;;;;;;;;;5057504;28;19917;-52
2022/12/18 13:15:41;;;;;;;;;;;;;;;;;;5057351;28;19913;-50
2022/12/18 13:18:07;;;;;;;;;;;;;;;;;;5056705;28;20300;-49
2022/12/18 13:20:32;;;;;;;;;;;;;;;;;;5057573;28;19917;-49
2022/12/18 13:22:58;;;;;;;;;;;;;;;;;;5057876;28;19948;-50
2022/12/18 13:25:24;;;;;;;;;;;;;;;;;;5058344;28;19944;-51
2022/12/18 13:27:50;;;;;;;;;;;;;;;;;;5058422;28;19908;-50
2022/12/18 13:30:19;;;;;;;;;;;;;;;;;;5057839;28;19912;-49
2022/12/18 13:32:45;;;;;;;;;;;;;;;;;;5058016;28;20004;-50
2022/12/18 13:35:12;;;;;;;;;;;;;;;;;;5056669;28;20353;-50
2022/12/18 13:37:38;;;;;;;;;;;;;;;;;;5056722;28;19909;-51
2022/12/18 13:40:04;;;;;;;;;;;;;;;;;;5057807;28;19938;-51
2022/12/18 13:45:14;;;;;;;;;;;;;;;;;;5057840;28;19955;-50
2022/12/18 13:47:40;;;;;;;;;;;;;;;;;;5057986;28;19948;-49
2022/12/18 13:50:06;;;;;;;;;;;;;;;;;;5057604;28;19970;-50
2022/12/18 13:52:32;;;;;;;;;;;;;;;;;;5056049;28;19958;-49
2022/12/18 13:54:58;;;;;;;;;;;;;;;;;;5054470;28;20273;-54
2022/12/18 13:57:24;;;;;;;;;;;;;;;;;;5055017;28;19927;-52
2022/12/18 13:59:50;;;;;;;;;;;;;;;;;;5054326;28;20408;-53
2022/12/18 14:02:16;;;;;;;;;;;;;;;;;;5054357;28;19920;-50
2022/12/18 14:04:41;;;;;;;;;;;;;;;;;;5053654;28;19912;-50
2022/12/18 14:07:08;;;;;;;;;;;;;;;;;;5053857;28;19952;-49
2022/12/18 14:09:34;;;;;;;;;;;;;;;;;;5053798;28;19959;-49
2022/12/18 14:14:44;;;;;;;;;;;;;;;;;;5054949;28;20427;-50
2022/12/18 14:17:11;;;;;;;;;;;;;;;;;;5053822;28;19913;-49
2022/12/18 14:19:37;;;;;;;;;;;;;;;;;;5053541;28;20368;-50
2022/12/18 14:22:02;;;;;;;;;;;6.40;97.40;;;;;;5054504;28;19947;-49
2022/12/18 14:24:29;;;;;;;;;;;6.30;97.30;;;;;;5054321;28;19964;-48
2022/12/18 14:27:11;;;;;;;;;;;6.30;97.90;;;;;;5054107;28;19909;-48
2022/12/18 14:29:42;;;;;;;;;;;6.40;97.90;;;;;;5053589;28;19913;-49
2022/12/18 14:32:18;;;;;;;;;;;6.40;98.10;;;;;;5054173;28;19970;-50
2022/12/18 14:34:48;;;;;;;;;;;6.40;98.20;;;;;;5053519;28;19913;-48
2022/12/18 14:37:15;;;;;;;;;;;6.40;98.30;;;;;;5053649;28;20508;-49
2022/12/18 14:39:51;;;;;;;;;;;6.30;98.70;;;;;;5053812;28;20373;-49
2022/12/18 14:42:17;;;;;;;;;;;;;;;;;;5054073;28;19912;-51
2022/12/18 14:44:43;;;;;;;;;;;;;;;;;;5051995;28;20373;-51
2022/12/18 14:47:09;;;;;;;;;;;;;;;;;;5053261;28;19920;-51
2022/12/18 14:49:36;;;;;;;;;;;;;;;;;;5053228;28;19916;-49
2022/12/18 14:52:02;;;;;;;;;;;;;;;;;;5053821;28;19912;-50
2022/12/18 14:54:28;;;;;;;;;;;;;;;;;;5053436;28;19931;-50
2022/12/18 14:56:55;;;;;;;;;;;;;;;;;;5053653;28;19919;-50
2022/12/18 14:59:22;;;;;;;;;;;;;;;;;;5051339;28;19960;-51
2022/12/18 15:01:48;;;;;;;;;;;;;;;;;;5053105;28;19916;-50
2022/12/18 15:04:14;;;;;;;;;;;;;;;;;;5051776;28;19959;-49
2022/12/18 15:06:41;;;;;;;;;;;;;;;;;;5052570;28;20003;-50
2022/12/18 15:09:07;;;;;;;;;;;;;;;;;;5052669;28;19952;-50
2022/12/18 15:11:34;;;;;;;;;;;;;;;;;;5053283;28;20409;-52
2022/12/18 15:14:00;;;;;;;;;;;;;;;;;;5053050;28;19917;-50
2022/12/18 15:16:26;;;;;;;;;;;;;;;;;;5053100;28;19912;-49
2022/12/18 15:18:52;;;;;;;;;;;;;;;;;;5053297;28;19965;-51
2022/12/18 15:21:18;;;;;;;;;;;;;;;;;;5051449;28;19958;-50
2022/12/18 15:23:44;;;;;;;;;;;;;;;;;;5052982;28;19909;-48
2022/12/18 15:26:14;;;;;;;;;;;;;;;;;;5051189;28;19913;-50
2022/12/18 15:28:40;;;;;;;;;;;;;;;;;;5052720;28;20001;-52
2022/12/18 15:31:06;;;;;;;;;;;;;;;;;;5051704;28;19913;-50
2022/12/18 15:33:32;;;;;;;;;;;;;;;;;;5043886;28;19913;-50
2022/12/18 15:35:58;;;;;;;;;;;;;;;;;;5053286;28;19916;-50
2022/12/18 15:38:24;;;;;;;;;;;;;;;;;;5052111;28;19913;-50
2022/12/18 15:40:50;;;;;;;;;;;;;;;;;;5051893;28;19913;-50
2022/12/18 15:43:34;;;;;;;;;;;;;;;;;;5052208;28;19916;-52
2022/12/18 15:46:00;;;;;;;;;;;;;;;;;;5040700;28;20000;-49
2022/12/18 15:48:26;;;;;;;;;;;;;;;;;;5052242;28;20381;-50
2022/12/18 15:50:52;;;;;;;;;;;;;;;;;;5051742;28;19928;-49
2022/12/18 15:53:18;;;;;;;;;;;;;;;;;;5048946;28;20452;-49
2022/12/18 15:58:28;;;;;;;;;;;;;;;;;;5052219;28;20396;-51
2022/12/18 16:00:54;;;;;;;;;;;;;;;;;;5052171;28;19913;-50
2022/12/18 16:03:20;;;;;;;;;;;;;;;;;;5052065;28;19963;-51
2022/12/18 16:05:47;;;;;;;;;;;;;;;;;;5052171;28;20308;-51
2022/12/18 16:08:13;;;;;;;;;;;;;;;;;;5052240;28;19908;-54
2022/12/18 16:10:39;;;;;;;;;;;;;;;;;;5052716;28;20015;-49
2022/12/18 16:13:05;;;;;;;;;;;;;;;;;;5049009;28;19917;-49
2022/12/18 16:15:31;;;;;;;;;;;;;;;;;;5051478;28;19913;-50
2022/12/18 16:17:57;;;;;;;;;;;;;;;;;;5052323;28;19912;-49
2022/12/18 16:20:23;;;;;;;;;;;;;;;;;;5051375;28;19924;-53
2022/12/18 16:22:49;;;;;;;;;;;;;;;;;;5050322;28;19996;-51
2022/12/18 16:25:15;;;;;;;;;;;;;;;;;;5051946;28;19920;-49
2022/12/18 16:27:40;;;;;;;;;;;;;;;;;;5051460;28;19913;-49
2022/12/18 16:30:06;;;;;;;;;;;;;;;;;;5051576;28;19912;-50
2022/12/18 16:32:32;;;;;;;;;;;;;;;;;;5050391;28;19913;-49
2022/12/18 16:34:58;;;;;;;;;;;;;;;;;;5051744;28;20356;-50
2022/12/18 16:37:24;;;;;;;;;;;;;;;;;;5051520;28;20350;-49
2022/12/18 16:39:50;;;;;;;;;;;;;;;;;;5051816;28;19960;-50
2022/12/18 16:42:18;;;;;;;;;;;;;;;;;;5051567;28;19912;-50
2022/12/18 16:44:44;;;;;;;;;;;;;;;;;;5051618;28;20003;-49
2022/12/18 16:47:10;;;;;;;;;;;;;;;;;;5051247;28;19959;-50